createdAt,value
2023-05-17T00:04:19.642Z,0.8
2023-05-17T00:10:39.506Z,0.8
2023-05-17T00:17:02.816Z,1.4
2023-05-17T00:23:22.561Z,1.4
2023-05-17T00:29:45.591Z,1
2023-05-17T00:36:05.743Z,1
2023-05-17T00:42:28.652Z,1.2
2023-05-17T00:48:48.507Z,1.2
2023-05-17T00:55:11.803Z,1.4
2023-05-17T01:01:31.506Z,1.4
2023-05-17T01:07:54.613Z,1.3
2023-05-17T01:14:14.676Z,1.3
2023-05-17T01:20:37.904Z,0.1
2023-05-17T01:26:57.618Z,0.1
2023-05-17T01:33:20.865Z,0.6
2023-05-17T01:39:40.599Z,0.6
2023-05-17T01:46:03.555Z,0.2
2023-05-17T01:52:23.732Z,0.2
2023-05-17T01:58:46.580Z,0.6
2023-05-17T02:05:06.646Z,0.6
2023-05-17T02:11:29.791Z,1.8
2023-05-17T02:17:49.664Z,1.8
2023-05-17T02:24:12.518Z,0.6
2023-05-17T02:30:32.729Z,0.6
2023-05-17T02:36:55.588Z,0.7
2023-05-17T02:43:15.552Z,0.7
2023-05-17T02:49:38.846Z,0.9
2023-05-17T02:55:58.565Z,0.9
2023-05-17T03:02:21.781Z,0.3
2023-05-17T03:08:41.795Z,0.3
2023-05-17T03:25:27.380Z,1.5
2023-05-17T03:31:47.482Z,1.5
2023-05-17T03:38:10.546Z,2.2
2023-05-17T03:44:31.788Z,2.2
2023-05-17T03:50:54.581Z,2.2
2023-05-17T03:57:14.580Z,2.2
2023-05-17T04:03:37.891Z,1.2
2023-05-17T04:09:57.598Z,1.2
2023-05-17T04:16:20.564Z,1.1
2023-05-17T04:22:40.793Z,1.1
2023-05-17T04:29:03.553Z,2.6
2023-05-17T04:35:23.648Z,2.6
2023-05-17T04:41:46.810Z,1.9
2023-05-17T04:48:06.651Z,1.9
2023-05-17T04:54:29.528Z,3.3
2023-05-17T05:00:49.852Z,3.3
2023-05-17T05:07:12.486Z,4.1
2023-05-17T05:13:32.569Z,4.1
2023-05-17T05:19:55.643Z,4.5
2023-05-17T05:26:15.511Z,4.5
2023-05-17T05:32:38.765Z,3.8
2023-05-17T05:38:58.788Z,3.8
2023-05-17T05:45:21.549Z,6.7
2023-05-17T05:51:41.486Z,6.7
2023-05-17T05:58:04.667Z,5.5
2023-05-17T06:04:32.995Z,5.5
2023-05-17T06:10:47.532Z,9.4
2023-05-17T06:17:07.654Z,9.4
2023-05-17T06:23:30.659Z,8.2
2023-05-17T06:29:50.587Z,8.2
2023-05-17T06:36:13.751Z,6.7
2023-05-17T06:42:33.527Z,6.7
2023-05-17T06:48:56.681Z,9.4
2023-05-17T06:55:16.686Z,9.4
2023-05-17T07:01:39.568Z,9.6
2023-05-17T07:07:59.507Z,9.6
2023-05-17T07:14:22.816Z,6.9
2023-05-17T07:20:42.552Z,6.9
2023-05-17T07:27:05.512Z,6
2023-05-17T07:33:25.790Z,6
2023-05-17T07:39:48.561Z,7.8
2023-05-17T07:46:08.534Z,7.8
2023-05-17T07:52:32.236Z,7.2
2023-05-17T07:58:52.548Z,7.2
2023-05-17T08:05:15.687Z,6.2
2023-05-17T08:11:35.646Z,6.2
2023-05-17T08:17:58.520Z,5.3
2023-05-17T08:24:18.519Z,5.3
2023-05-17T08:40:47.072Z,4
2023-05-17T08:47:06.520Z,4
2023-05-17T08:53:29.533Z,1.4
2023-05-17T08:59:49.592Z,1.4
2023-05-17T09:06:12.581Z,1.4
2023-05-17T09:12:32.553Z,1.4
2023-05-17T09:18:55.621Z,1.7
2023-05-17T09:25:15.547Z,1.7
2023-05-17T09:31:38.717Z,2
2023-05-17T09:37:58.695Z,2
2023-05-17T09:44:21.995Z,1
2023-05-17T09:50:41.542Z,1
2023-05-17T09:57:04.536Z,0.8
2023-05-17T10:03:24.622Z,0.8
2023-05-17T10:09:47.494Z,0.4
2023-05-17T10:16:07.792Z,0.4
2023-05-17T10:22:30.526Z,0.5
2023-05-17T10:28:50.506Z,0.5
2023-05-17T10:35:13.595Z,1
2023-05-17T10:41:33.500Z,1
2023-05-17T10:47:57.681Z,0.2
2023-05-17T10:54:16.568Z,0.2
2023-05-17T11:00:39.623Z,0.7
2023-05-17T11:07:00.117Z,0.7
2023-05-17T11:13:22.556Z,2.3
2023-05-17T11:19:42.623Z,2.3
2023-05-17T11:26:13.027Z,1.6
2023-05-17T11:32:25.531Z,1.6
2023-05-17T11:38:52.238Z,1.4
2023-05-17T11:45:08.505Z,1.4
2023-05-17T11:51:31.649Z,1
2023-05-17T11:57:51.528Z,1
2023-05-17T12:04:14.499Z,0.8
2023-05-17T12:10:35.076Z,0.8
2023-05-17T12:16:57.503Z,1.3
2023-05-17T12:23:17.551Z,1.3
2023-05-17T12:29:40.529Z,1.2
2023-05-17T12:36:00.509Z,1.2
2023-05-17T12:42:23.558Z,1.1
2023-05-17T12:48:43.570Z,1.1
2023-05-17T12:55:06.539Z,0.8
2023-05-17T13:01:26.507Z,0.8
2023-05-17T13:07:49.544Z,0.5
2023-05-17T13:14:09.543Z,0.5
2023-05-17T13:20:32.489Z,1.4
2023-05-17T13:26:52.562Z,1.4
2023-05-17T13:33:15.537Z,0.7
2023-05-17T13:39:35.512Z,0.7
2023-05-17T13:45:58.602Z,1.3
2023-05-17T13:52:18.486Z,1.3
2023-05-17T13:58:41.599Z,1.2
2023-05-17T14:15:25.090Z,0.7
2023-05-17T14:21:47.042Z,1.4
2023-05-17T14:28:06.492Z,1.4
2023-05-17T14:34:29.626Z,1.4
2023-05-17T14:40:49.524Z,1.4
2023-05-17T14:47:12.527Z,2.1
2023-05-17T14:53:32.601Z,2.1
2023-05-17T14:59:55.487Z,1.1
2023-05-17T15:06:15.541Z,1.1
2023-05-17T15:12:38.507Z,0.4
2023-05-17T15:18:58.533Z,0.4
2023-05-17T15:25:21.551Z,1.3
2023-05-17T15:31:41.504Z,1.3
2023-05-17T15:38:04.508Z,0.7
2023-05-17T15:44:24.488Z,0.7
2023-05-17T15:50:47.559Z,0.4
2023-05-17T15:57:07.547Z,0.4
2023-05-17T16:03:30.514Z,0.6
2023-05-17T16:09:50.592Z,0.6
2023-05-17T16:16:13.503Z,1.6
2023-05-17T16:22:33.536Z,1.6
2023-05-17T16:28:56.574Z,0.8
2023-05-17T16:35:16.509Z,0.8
2023-05-17T16:41:39.594Z,2.5
2023-05-17T16:47:59.570Z,2.5
2023-05-17T16:54:23.134Z,1.4
2023-05-17T17:00:44.857Z,1.4
2023-05-17T17:07:08.123Z,1.8
2023-05-17T17:13:27.780Z,1.8
2023-05-17T17:19:50.547Z,1.3
2023-05-17T17:26:10.664Z,1.3
2023-05-17T17:32:33.653Z,1.5
2023-05-17T17:38:53.516Z,1.5
2023-05-17T17:45:16.735Z,0.5
2023-05-17T17:51:36.563Z,0.5
2023-05-17T17:57:59.595Z,0.1
2023-05-17T18:04:19.670Z,0.1
2023-05-17T18:10:42.586Z,0.9
2023-05-17T18:17:02.632Z,0.9
2023-05-17T18:23:25.548Z,1.5
2023-05-17T18:29:45.579Z,1.5
2023-05-17T18:36:08.565Z,1
2023-05-17T18:42:28.595Z,1
2023-05-17T18:48:51.609Z,0.9
2023-05-17T18:55:11.517Z,0.9
2023-05-17T19:01:34.628Z,0.7
2023-05-17T19:07:54.610Z,0.7
2023-05-17T19:14:17.621Z,2.1
2023-05-17T19:20:37.706Z,2.1
2023-05-17T19:27:00.579Z,1.8
2023-05-17T19:50:59.506Z,0.8
2023-05-17T19:57:19.541Z,0.8
2023-05-17T20:03:42.594Z,1.8
2023-05-17T20:10:02.903Z,1.8
2023-05-17T20:16:25.560Z,2.2
2023-05-17T20:22:45.560Z,2.2
2023-05-17T20:29:08.646Z,0.3
2023-05-17T20:35:28.568Z,0.3
2023-05-17T20:41:51.527Z,1.4
2023-05-17T20:48:11.576Z,1.4
2023-05-17T20:54:34.631Z,1.4
2023-05-17T21:00:54.588Z,1.4
2023-05-17T21:07:17.702Z,2.5
2023-05-17T21:13:37.498Z,2.5
2023-05-17T21:20:00.520Z,1.6
2023-05-17T21:26:20.542Z,1.6
2023-05-17T21:32:43.571Z,0.8
2023-05-17T21:39:03.593Z,0.8
2023-05-17T21:45:26.518Z,0.3
2023-05-17T21:51:46.558Z,0.3
2023-05-17T21:58:09.603Z,1.5
2023-05-17T22:22:24.526Z,4
2023-05-17T22:28:44.470Z,4
2023-05-17T22:35:07.600Z,4
2023-05-17T22:41:27.605Z,4
2023-05-17T22:47:50.589Z,2
2023-05-17T22:54:10.611Z,2
2023-05-17T23:00:33.668Z,1.5
2023-05-17T23:06:53.510Z,1.5
2023-05-17T23:13:16.608Z,0.8
2023-05-17T23:19:36.547Z,0.8
2023-05-17T23:25:59.663Z,1.4
2023-05-17T23:32:19.713Z,1.4
2023-05-17T23:38:42.896Z,1.3
2023-05-17T23:45:02.568Z,1.3
2023-05-17T23:51:25.658Z,1.9
2023-05-17T23:57:45.597Z,1.9
